Terminal Aerodrome Forecast
Issued by NWS

Home | Current Version | Previous Version | Text Only | Print | Product List | Glossary On
Versions: 1 2 3 4 5 6 7 8 9 10 11 12 13 14 15 16
573
FTUS43 KEAX 261725
TAFSTJ
TAF
KSTJ 261725Z 2618/2718 VRB06KT P6SM BKN015
     FM262100 VRB04KT P6SM BKN025
     FM270500 02006KT 4SM -SHRA BR OVC007
     FM270700 01007KT 2SM -SHRA BR OVC004
     FM271600 01009KT P6SM OVC007=

USA.gov is the U.S. government's official web portal to all federal, state and local government web resources and services.